Airfield :
LOGIN :

Register | Disclaimer

   EN    FR    IT 

 










Legend :    VFR   Marginal VFR   IFR   Intensive IFR   Very Intensive IFR
Visi :
Ceiling :
>= 8 km
>= 3000ft
5 to 8 km
1000 to 3000 ft
1500m to 5 km
500 to 1000 ft
800 to 1500m
200 to 500 ft
< 800m
< 200 ft
Symbols :   Thunderstorms  Fog  Heavy snow  Heavy precipitations  Wind > 20 kt
SIGMETs :     Misc.  Thunderstorms  Icing  Turbulence  Mountain Waves  Volcanic Ashes






- Airport Elevation : 313 ft


LFQA - Reims-Prunay

CURRENT METAR :
  • 261200Z AUTO 26005KT 230V290 9999 FEW033 BKN054 05/00 Q1022

EXPIRED METARs :
  • 261130Z AUTO 31003KT 280V340 9999 FEW048 OVC060 03/M00 Q1022
  • 261100Z AUTO 27004KT 240V300 9999 BKN049 OVC062 03/M00 Q1022
  • 261030Z AUTO 27005KT 9999 SCT047 OVC060 03/M00 Q1022
  • 261000Z AUTO 28005KT 240V310 CAVOK 03/M00 Q1022
  • 260930Z AUTO 29004KT 250V310 9999 FEW033 SCT039 BKN060 02/00 Q1021

TAF N/A



MET'MAP, your aeronautical weather chart ! - Copyright ORBIFLY December 2007 - Disclaimer

ORBIFLY MET'MAP TEAM :

Programming & Development : Alexandra Zaïnal
Concept & original design : Baudouin d'Aumeries
Assistance for programming : Marc-Olivier Méhu
Technical & hardware support : Manuel Goepfert

Contact : metmap@orbifly.com




SOURCES & CREDITS :

   NOAA